createdAt,value
2018-08-28T00:01:06.550Z,2.20
2018-08-28T00:03:36.663Z,1.60
2018-08-28T00:06:08.631Z,2.00
2018-08-28T00:08:38.573Z,1.50
2018-08-28T00:11:08.784Z,2.10
2018-08-28T00:13:40.320Z,1.70
2018-08-28T00:16:10.762Z,2.33
2018-08-28T00:18:41.426Z,2.10
2018-08-28T00:21:11.911Z,2.40
2018-08-28T00:23:43.090Z,2.00
2018-08-28T00:26:13.057Z,2.20
2018-08-28T00:28:43.004Z,1.87
2018-08-28T00:34:00.079Z,2.37
2018-08-28T00:36:30.977Z,2.20
2018-08-28T00:39:01.080Z,2.10
2018-08-28T00:41:32.551Z,2.20
2018-08-28T00:44:03.379Z,2.13
2018-08-28T00:46:33.369Z,2.37
2018-08-28T00:49:03.564Z,2.17
2018-08-28T00:51:33.587Z,2.30
2018-08-28T00:54:04.370Z,2.40
2018-08-28T00:56:38.816Z,2.40
2018-08-28T00:59:08.880Z,2.30
2018-08-28T01:01:38.775Z,2.20
2018-08-28T01:04:14.928Z,2.30
2018-08-28T01:06:44.876Z,2.33
2018-08-28T01:09:32.232Z,2.40
2018-08-28T01:12:11.232Z,2.53
2018-08-28T01:17:37.090Z,2.10
2018-08-28T01:20:12.839Z,2.80
2018-08-28T01:23:04.048Z,2.40
2018-08-28T01:25:43.071Z,2.47
2018-08-28T01:28:12.941Z,2.40
2018-08-28T01:30:42.920Z,2.40
2018-08-28T01:33:12.809Z,2.40
2018-08-28T01:35:47.045Z,2.60
2018-08-28T01:38:17.146Z,2.37
2018-08-28T01:40:47.059Z,2.60
2018-08-28T01:45:56.925Z,2.70
2018-08-28T01:48:26.870Z,3.00
2018-08-28T01:50:56.796Z,2.93
2018-08-28T01:53:29.247Z,3.03
2018-08-28T01:55:59.217Z,2.73
2018-08-28T02:01:23.788Z,3.10
2018-08-28T02:03:56.063Z,3.07
2018-08-28T02:06:26.047Z,2.87
2018-08-28T02:09:48.848Z,3.57
2018-08-28T02:12:19.052Z,2.90
2018-08-28T02:14:48.941Z,3.10
2018-08-28T02:17:19.884Z,3.90
2018-08-28T02:19:49.979Z,3.60
2018-08-28T02:22:21.226Z,3.83
2018-08-28T02:25:01.131Z,3.30
2018-08-28T02:27:31.707Z,3.53
2018-08-28T02:30:21.792Z,3.47
2018-08-28T02:32:52.335Z,3.67
2018-08-28T02:35:22.250Z,3.70
2018-08-28T02:37:52.360Z,4.10
2018-08-28T02:40:24.431Z,4.27
2018-08-28T02:42:54.436Z,3.60
2018-08-28T02:45:24.385Z,3.87
2018-08-28T02:47:54.349Z,3.87
2018-08-28T02:50:24.364Z,3.50
2018-08-28T02:52:54.431Z,4.03
2018-08-28T02:55:29.794Z,4.23
2018-08-28T02:57:59.793Z,4.40
2018-08-28T03:00:29.721Z,4.03
2018-08-28T03:02:59.718Z,3.70
2018-08-28T03:08:27.474Z,3.77
2018-08-28T03:10:57.718Z,3.57
2018-08-28T03:13:27.880Z,3.60
2018-08-28T03:15:58.023Z,4.23
2018-08-28T03:18:30.520Z,4.10
2018-08-28T03:21:00.470Z,3.70
2018-08-28T03:23:30.359Z,4.57
2018-08-28T03:26:00.610Z,4.93
2018-08-28T03:28:31.809Z,3.90
2018-08-28T03:31:01.841Z,5.00
2018-08-28T03:33:32.177Z,5.23
2018-08-28T03:36:02.046Z,4.77
2018-08-28T03:38:32.815Z,4.57
2018-08-28T03:41:11.872Z,4.03
2018-08-28T03:43:41.917Z,4.33
2018-08-28T03:46:12.445Z,4.03
2018-08-28T03:48:42.471Z,4.30
2018-08-28T03:51:31.364Z,4.60
2018-08-28T03:54:01.275Z,4.37
2018-08-28T03:56:31.131Z,4.30
2018-08-28T03:59:01.844Z,4.97
2018-08-28T04:01:31.773Z,4.20
2018-08-28T04:04:11.767Z,4.17
2018-08-28T04:06:42.533Z,4.23
2018-08-28T04:09:12.766Z,4.70
2018-08-28T04:11:42.845Z,4.60
2018-08-28T04:14:18.368Z,4.00
2018-08-28T04:16:48.348Z,4.33
2018-08-28T04:19:18.367Z,4.83
2018-08-28T04:21:48.263Z,4.20
2018-08-28T04:24:18.374Z,4.50
2018-08-28T04:26:48.702Z,4.10
2018-08-28T04:29:18.528Z,4.70
2018-08-28T04:31:48.487Z,4.53
2018-08-28T04:34:18.446Z,4.60
2018-08-28T04:36:48.362Z,5.83
2018-08-28T04:39:19.535Z,5.10
2018-08-28T04:42:08.863Z,5.80
2018-08-28T04:44:57.310Z,4.83
2018-08-28T04:47:27.291Z,5.77
2018-08-28T04:49:57.211Z,5.50
2018-08-28T04:52:27.224Z,5.27
2018-08-28T04:54:57.978Z,5.07
2018-08-28T04:57:27.723Z,5.40
2018-08-28T04:59:58.829Z,5.27
2018-08-28T05:02:37.877Z,5.80
2018-08-28T05:05:10.873Z,5.70
2018-08-28T05:07:44.496Z,4.70
2018-08-28T05:10:16.064Z,5.80
2018-08-28T05:12:47.310Z,6.20
2018-08-28T05:15:44.256Z,5.40
2018-08-28T05:18:18.167Z,5.00
2018-08-28T05:23:45.632Z,5.57
2018-08-28T05:39:35.650Z,6.07
2018-08-28T05:42:15.976Z,5.53
2018-08-28T05:44:47.450Z,6.50
2018-08-28T05:50:34.349Z,5.40
2018-08-28T05:53:21.579Z,6.13
2018-08-28T06:28:53.913Z,5.50
2018-08-28T06:32:54.173Z,5.37
2018-08-28T07:00:42.347Z,4.90
2018-08-28T07:03:31.307Z,4.27
2018-08-28T07:12:03.490Z,4.70
2018-08-28T07:14:44.620Z,5.10
2018-08-28T07:17:16.720Z,4.30
2018-08-28T07:47:31.424Z,4.20
2018-08-28T07:50:13.346Z,4.43
2018-08-28T07:52:45.672Z,4.03
2018-08-28T08:07:37.746Z,4.13
2018-08-28T08:10:21.709Z,4.07
2018-08-28T08:17:30.992Z,4.03
2018-08-28T08:20:03.469Z,4.73
2018-08-28T08:22:42.881Z,3.97
2018-08-28T08:25:14.338Z,4.20
2018-08-28T08:27:54.742Z,4.43
2018-08-28T08:35:08.612Z,4.07
2018-08-28T08:44:45.521Z,4.77
2018-08-28T08:47:25.240Z,5.30
2018-08-28T08:53:13.148Z,4.60
2018-08-28T08:55:45.095Z,4.80
2018-08-28T09:11:10.707Z,5.30
2018-08-28T09:19:30.065Z,4.90
2018-08-28T09:34:30.867Z,6.10
2018-08-28T09:37:07.276Z,5.77
2018-08-28T09:39:38.898Z,5.57
2018-08-28T09:42:21.392Z,5.83
2018-08-28T09:44:54.140Z,5.40
2018-08-28T09:47:27.005Z,5.97
2018-08-28T09:50:03.310Z,6.03
2018-08-28T09:52:36.576Z,5.40
2018-08-28T09:55:07.966Z,6.50
2018-08-28T09:57:48.735Z,5.80
2018-08-28T10:00:26.723Z,5.70
2018-08-28T10:03:04.303Z,5.87
2018-08-28T10:05:38.479Z,5.53
2018-08-28T10:08:12.770Z,6.10
2018-08-28T10:10:45.273Z,6.57
2018-08-28T10:13:16.524Z,6.30
2018-08-28T10:15:59.624Z,6.00
2018-08-28T10:18:30.773Z,5.80
2018-08-28T10:21:02.967Z,6.23
2018-08-28T10:23:41.277Z,5.70
2018-08-28T10:26:14.130Z,5.80
2018-08-28T10:28:47.533Z,6.67
2018-08-28T10:31:19.044Z,5.70
2018-08-28T10:33:53.290Z,5.83
2018-08-28T10:39:29.825Z,5.90
2018-08-28T10:42:11.356Z,6.53
2018-08-28T10:45:01.077Z,6.30
2018-08-28T10:51:02.930Z,6.53
2018-08-28T10:53:37.348Z,6.70
2018-08-28T10:56:22.729Z,6.07
2018-08-28T11:01:39.550Z,6.90
2018-08-28T11:24:11.194Z,6.03
2018-08-28T11:26:42.742Z,6.30
2018-08-28T11:29:13.254Z,6.40
2018-08-28T11:31:56.164Z,6.77
2018-08-28T11:34:30.398Z,6.90
2018-08-28T11:47:58.163Z,7.20
2018-08-28T11:50:31.447Z,6.50
2018-08-28T11:53:08.112Z,7.00
2018-08-28T11:56:01.948Z,6.47
2018-08-28T12:01:46.778Z,7.50
2018-08-28T12:04:34.507Z,6.97
2018-08-28T12:07:06.529Z,6.90
2018-08-28T12:09:39.296Z,7.33
2018-08-28T12:12:17.126Z,7.50
2018-08-28T12:14:56.379Z,7.20
2018-08-28T12:17:37.139Z,7.33
2018-08-28T12:49:04.319Z,6.87
2018-08-28T12:51:34.642Z,6.83
2018-08-28T12:54:18.753Z,7.40
2018-08-28T12:56:49.297Z,7.30
2018-08-28T12:59:21.415Z,7.10
2018-08-28T13:01:52.857Z,7.63
2018-08-28T13:04:30.469Z,7.87
2018-08-28T13:07:28.119Z,7.20
2018-08-28T13:10:09.149Z,7.87
2018-08-28T13:13:46.644Z,7.13
2018-08-28T13:19:20.271Z,6.97
2018-08-28T13:21:50.835Z,8.00
2018-08-28T13:24:22.540Z,7.63
2018-08-28T13:27:05.113Z,6.93
2018-08-28T13:29:45.261Z,7.27
2018-08-28T13:32:17.306Z,6.53
2018-08-28T13:34:54.557Z,6.80
2018-08-28T13:37:47.284Z,6.37
2018-08-28T13:40:18.405Z,6.67
2018-08-28T13:42:48.576Z,6.70
2018-08-28T13:59:46.549Z,6.80
2018-08-28T14:02:18.096Z,7.50
2018-08-28T14:04:48.472Z,7.10
2018-08-28T14:07:20.907Z,7.87
2018-08-28T14:09:51.677Z,7.57
2018-08-28T14:12:21.874Z,7.80
2018-08-28T14:18:26.395Z,8.00
2018-08-28T14:20:59.281Z,7.30
2018-08-28T14:26:54.268Z,7.03
2018-08-28T14:29:28.023Z,7.00
2018-08-28T14:32:00.097Z,7.17
2018-08-28T14:34:29.775Z,7.00
2018-08-28T14:37:03.032Z,7.17
2018-08-28T14:39:33.561Z,6.90
2018-08-28T14:42:03.381Z,6.87
2018-08-28T14:44:34.226Z,7.13
2018-08-28T14:47:06.502Z,6.53
2018-08-28T14:49:38.784Z,6.87
2018-08-28T14:52:09.471Z,7.33
2018-08-28T14:54:40.448Z,6.90
2018-08-28T14:57:11.090Z,7.57
2018-08-28T14:59:58.725Z,7.23
2018-08-28T15:02:29.246Z,7.93
2018-08-28T15:05:00.204Z,7.23
2018-08-28T15:07:31.521Z,7.40
2018-08-28T15:10:01.831Z,6.47
2018-08-28T15:12:33.103Z,8.03
2018-08-28T15:17:57.563Z,7.07
2018-08-28T15:20:30.633Z,7.60
2018-08-28T15:23:02.966Z,7.33
2018-08-28T15:25:35.575Z,7.57
2018-08-28T15:28:11.169Z,6.43
2018-08-28T15:30:43.268Z,7.87
2018-08-28T15:36:03.236Z,7.87
2018-08-28T15:38:35.547Z,6.73
2018-08-28T15:41:09.031Z,6.90
2018-08-28T15:43:42.918Z,7.60
2018-08-28T15:46:31.129Z,7.60
2018-08-28T15:52:10.201Z,7.47
2018-08-28T15:54:42.868Z,7.60
2018-08-28T15:57:21.610Z,7.17
2018-08-28T16:02:47.967Z,7.93
2018-08-28T16:05:25.964Z,7.27
2018-08-28T16:07:56.953Z,7.10
2018-08-28T16:10:27.603Z,7.33
2018-08-28T16:13:02.304Z,7.30
2018-08-28T16:15:40.392Z,7.03
2018-08-28T16:20:58.461Z,7.10
2018-08-28T16:23:43.677Z,6.93
2018-08-28T16:26:28.593Z,7.23
2018-08-28T16:39:41.166Z,7.10
2018-08-28T16:45:26.757Z,7.27
2018-08-28T17:19:06.618Z,7.13
2018-08-28T17:21:48.446Z,6.77
2018-08-28T17:27:09.299Z,6.40
2018-08-28T17:29:57.421Z,6.13
2018-08-28T17:32:29.672Z,6.77
2018-08-28T17:35:02.834Z,6.00
2018-08-28T17:37:42.702Z,6.13
2018-08-28T17:40:14.152Z,6.77
2018-08-28T17:42:46.991Z,6.53
2018-08-28T17:45:29.617Z,6.23
2018-08-28T17:48:19.627Z,6.30
2018-08-28T17:51:12.554Z,6.43
2018-08-28T17:53:51.844Z,7.13
2018-08-28T17:56:28.295Z,7.93
2018-08-28T17:59:02.436Z,7.77
2018-08-28T18:01:34.319Z,7.10
2018-08-28T18:04:08.697Z,6.53
2018-08-28T18:09:36.790Z,7.30
2018-08-28T18:12:12.447Z,6.83
2018-08-28T18:14:49.327Z,7.17
2018-08-28T18:17:21.578Z,7.87
2018-08-28T18:19:55.672Z,6.93
2018-08-28T18:22:29.371Z,7.17
2018-08-28T18:25:03.392Z,7.07
2018-08-28T18:27:35.166Z,7.47
2018-08-28T18:30:05.899Z,7.53
2018-08-28T18:32:40.861Z,7.20
2018-08-28T18:35:14.079Z,6.80
2018-08-28T18:37:46.833Z,7.07
2018-08-28T18:40:20.935Z,7.07
2018-08-28T18:42:58.741Z,7.23
2018-08-28T18:45:45.865Z,6.50
2018-08-28T18:48:35.802Z,6.87
2018-08-28T18:51:20.124Z,7.27
2018-08-28T18:53:57.263Z,6.47
2018-08-28T18:59:35.771Z,7.60
2018-08-28T19:02:06.714Z,7.07
2018-08-28T19:04:37.807Z,7.40
2018-08-28T19:07:09.317Z,6.73
2018-08-28T19:09:42.453Z,7.03
2018-08-28T19:12:14.158Z,6.77
2018-08-28T19:14:48.795Z,6.30
2018-08-28T19:20:21.966Z,6.17
2018-08-28T19:23:01.317Z,7.17
2018-08-28T19:25:32.307Z,6.67
2018-08-28T19:28:07.413Z,6.70
2018-08-28T19:30:46.450Z,6.77
2018-08-28T19:33:19.190Z,6.40
2018-08-28T19:35:52.252Z,7.10
2018-08-28T19:38:26.139Z,6.27
2018-08-28T19:40:58.738Z,6.97
2018-08-28T19:43:32.143Z,7.60
2018-08-28T19:46:04.422Z,6.60
2018-08-28T19:48:38.983Z,6.63
2018-08-28T19:51:13.130Z,7.00
2018-08-28T19:53:48.486Z,5.67
2018-08-28T19:56:32.424Z,7.00
2018-08-28T19:59:08.051Z,7.27
2018-08-28T20:01:39.633Z,7.80
2018-08-28T20:04:14.872Z,6.97
2018-08-28T20:06:52.723Z,7.33
2018-08-28T20:12:48.676Z,6.93
2018-08-28T20:15:21.944Z,6.67
2018-08-28T20:17:53.174Z,6.97
2018-08-28T20:20:26.105Z,6.47
2018-08-28T20:23:13.578Z,6.90
2018-08-28T20:31:16.515Z,7.47
2018-08-28T20:33:56.065Z,6.07
2018-08-28T20:36:34.005Z,7.03
2018-08-28T20:39:06.104Z,6.93
2018-08-28T20:41:45.170Z,6.63
2018-08-28T20:44:23.341Z,6.53
2018-08-28T20:49:39.052Z,6.73
2018-08-28T20:52:11.417Z,6.87
2018-08-28T20:54:43.968Z,7.00
2018-08-28T20:57:17.284Z,7.57
2018-08-28T20:59:50.826Z,7.23
2018-08-28T21:02:22.056Z,7.13
2018-08-28T21:04:52.692Z,6.30
2018-08-28T21:07:23.180Z,6.00
2018-08-28T21:09:53.182Z,6.80
2018-08-28T21:12:23.908Z,6.33
2018-08-28T21:14:54.812Z,7.00
2018-08-28T21:17:26.378Z,6.63
2018-08-28T21:19:56.732Z,6.87
2018-08-28T21:22:30.772Z,6.43
2018-08-28T21:25:01.012Z,6.87
2018-08-28T21:27:32.883Z,6.23
2018-08-28T21:30:05.596Z,6.50
2018-08-28T21:35:40.761Z,7.20
2018-08-28T21:38:10.773Z,6.77
2018-08-28T21:40:44.476Z,6.40
2018-08-28T21:43:21.461Z,7.17
2018-08-28T21:49:48.485Z,6.43
2018-08-28T21:52:18.489Z,6.53
2018-08-28T21:54:49.914Z,6.37
2018-08-28T21:57:23.060Z,6.80
2018-08-28T21:59:54.033Z,7.23
2018-08-28T22:02:25.068Z,6.97
2018-08-28T22:04:55.959Z,6.50
2018-08-28T22:07:32.218Z,7.00
2018-08-28T22:10:06.987Z,6.90
2018-08-28T22:12:37.398Z,6.90
2018-08-28T22:15:13.291Z,7.17
2018-08-28T22:17:44.112Z,7.20
2018-08-28T22:20:23.870Z,6.60
2018-08-28T22:22:55.531Z,7.13
2018-08-28T22:28:46.291Z,7.40
2018-08-28T22:31:19.796Z,6.40
2018-08-28T22:36:39.075Z,6.60
2018-08-28T22:39:10.130Z,6.57
2018-08-28T22:49:43.799Z,6.83
2018-08-28T22:52:19.635Z,6.17
2018-08-28T22:57:34.188Z,6.50
2018-08-28T23:00:09.943Z,6.20
2018-08-28T23:02:56.057Z,6.53
2018-08-28T23:05:31.428Z,6.50
2018-08-28T23:08:05.179Z,7.03
2018-08-28T23:10:37.682Z,6.67
2018-08-28T23:13:08.313Z,7.60
2018-08-28T23:15:39.961Z,6.70
2018-08-28T23:18:10.742Z,7.20
2018-08-28T23:20:52.170Z,7.03
2018-08-28T23:23:23.774Z,6.57
2018-08-28T23:25:54.626Z,6.87
2018-08-28T23:28:24.953Z,6.53
2018-08-28T23:30:55.914Z,7.30
2018-08-28T23:33:26.460Z,7.43
2018-08-28T23:35:59.489Z,6.90
2018-08-28T23:38:31.083Z,6.90
2018-08-28T23:47:44.412Z,7.73
2018-08-28T23:50:21.269Z,7.60
2018-08-28T23:53:04.804Z,6.80
2018-08-28T23:55:45.012Z,7.40
2018-08-28T23:58:35.264Z,7.27
